Budaghers, New Mexico
Current Conditions -  °F | °C
As of 10:55 PM on Sunday 19 Oct 2014 (Local Time) from KAEG Reporting Station
Clear Clear  
Wind Chill: 44°   Ceiling: Unl
Heat Index: 48°   Visibility: 10mi
Dew Point: 38°   Wind: 7mph
Humidity: 70%   Direction: 330°NNW
Pressure: 30.18"   Gusts: NA
Location:  35.4656°N, 106.615°W
Report Text: KAEG 200455Z AUTO 33006KT 10SM CLR 09/04 A3018 RMK AO2 T00870035
Loading
Personal Weather Stations






























Interactive Weather Map
Tropical Storm Tracking
New forecast layout! Learn more

10-Day Weather Forecast

Advertisements
Track Severe Weather on mobile